sensor_id;sensor_type;location;lat;lon;timestamp;temperature;humidity
12460;DHT22;6295;49.452;8.466;2023-07-24T03:13:59;18.20;99.90
12460;DHT22;6295;49.452;8.466;2023-07-24T03:18:01;18.20;99.90
12460;DHT22;6295;49.452;8.466;2023-07-24T03:22:04;18.20;99.90
12460;DHT22;6295;49.452;8.466;2023-07-24T03:26:06;18.20;99.90
12460;DHT22;6295;49.452;8.466;2023-07-24T03:30:10;18.20;99.90
12460;DHT22;6295;49.452;8.466;2023-07-24T03:34:12;18.30;99.90
12460;DHT22;6295;49.452;8.466;2023-07-24T03:38:14;18.30;99.90
12460;DHT22;6295;49.452;8.466;2023-07-24T03:42:25;18.30;99.90
12460;DHT22;6295;49.452;8.466;2023-07-24T03:46:29;18.30;99.90
12460;DHT22;6295;49.452;8.466;2023-07-24T03:50:31;18.30;99.90
12460;DHT22;6295;49.452;8.466;2023-07-24T03:54:33;18.30;99.90
12460;DHT22;6295;49.452;8.466;2023-07-24T03:58:35;18.40;99.90
12460;DHT22;6295;49.452;8.466;2023-07-24T04:02:39;18.40;99.90
12460;DHT22;6295;49.452;8.466;2023-07-24T04:14:46;18.50;99.90
12460;DHT22;6295;49.452;8.466;2023-07-24T04:18:50;18.50;99.90
12460;DHT22;6295;49.452;8.466;2023-07-24T04:22:53;18.50;99.90
12460;DHT22;6295;49.452;8.466;2023-07-24T04:26:55;18.60;99.90
12460;DHT22;6295;49.452;8.466;2023-07-24T04:30:59;18.60;99.90
12460;DHT22;6295;49.452;8.466;2023-07-24T04:35:04;18.70;99.90
12460;DHT22;6295;49.452;8.466;2023-07-24T04:39:06;18.80;99.90
12460;DHT22;6295;49.452;8.466;2023-07-24T04:43:08;18.90;99.90
12460;DHT22;6295;49.452;8.466;2023-07-24T04:51:14;19.00;99.90
12460;DHT22;6295;49.452;8.466;2023-07-24T04:59:19;19.10;99.90
12460;DHT22;6295;49.452;8.466;2023-07-24T05:03:21;19.10;99.90
12460;DHT22;6295;49.452;8.466;2023-07-24T05:11:26;19.20;99.90
12460;DHT22;6295;49.452;8.466;2023-07-24T05:15:28;19.30;99.90
12460;DHT22;6295;49.452;8.466;2023-07-24T05:23:38;19.40;99.90
12460;DHT22;6295;49.452;8.466;2023-07-24T05:27:46;19.50;99.90
12460;DHT22;6295;49.452;8.466;2023-07-24T05:35:52;19.50;99.90
12460;DHT22;6295;49.452;8.466;2023-07-24T05:40:00;19.50;99.90
12460;DHT22;6295;49.452;8.466;2023-07-24T05:44:02;19.60;99.90
12460;DHT22;6295;49.452;8.466;2023-07-24T05:48:05;19.60;99.90
12460;DHT22;6295;49.452;8.466;2023-07-24T05:52:07;19.70;99.90
12460;DHT22;6295;49.452;8.466;2023-07-24T05:56:11;19.70;99.90
12460;DHT22;6295;49.452;8.466;2023-07-24T06:00:13;19.70;99.90
12460;DHT22;6295;49.452;8.466;2023-07-24T06:04:15;19.80;99.90
12460;DHT22;6295;49.452;8.466;2023-07-24T06:08:17;19.80;99.90
12460;DHT22;6295;49.452;8.466;2023-07-24T06:12:21;19.80;99.90
12460;DHT22;6295;49.452;8.466;2023-07-24T06:16:23;19.90;99.90
12460;DHT22;6295;49.452;8.466;2023-07-24T06:24:27;20.00;99.90
12460;DHT22;6295;49.452;8.466;2023-07-24T06:32:34;20.10;99.90
12460;DHT22;6295;49.452;8.466;2023-07-24T06:36:38;20.10;99.90
12460;DHT22;6295;49.452;8.466;2023-07-24T06:44:45;20.20;99.90
12460;DHT22;6295;49.452;8.466;2023-07-24T06:48:47;20.30;99.90
12460;DHT22;6295;49.452;8.466;2023-07-24T06:52:49;20.30;99.90
12460;DHT22;6295;49.452;8.466;2023-07-24T06:56:52;20.40;99.90
12460;DHT22;6295;49.452;8.466;2023-07-24T07:00:56;20.40;99.90
12460;DHT22;6295;49.452;8.466;2023-07-24T07:09:00;20.60;99.90
12460;DHT22;6295;49.452;8.466;2023-07-24T07:13:02;20.70;99.90
12460;DHT22;6295;49.452;8.466;2023-07-24T07:17:06;20.80;99.90
12460;DHT22;6295;49.452;8.466;2023-07-24T07:21:08;20.90;99.90
12460;DHT22;6295;49.452;8.466;2023-07-24T07:25:10;21.10;99.90
12460;DHT22;6295;49.452;8.466;2023-07-24T07:29:12;21.20;99.90
12460;DHT22;6295;49.452;8.466;2023-07-24T07:33:15;21.30;99.90
12460;DHT22;6295;49.452;8.466;2023-07-24T07:37:18;21.40;99.90
12460;DHT22;6295;49.452;8.466;2023-07-24T07:41:20;21.40;99.90
12460;DHT22;6295;49.452;8.466;2023-07-24T07:45:25;21.40;99.90
12460;DHT22;6295;49.452;8.466;2023-07-24T07:49:31;21.40;99.90
12460;DHT22;6295;49.452;8.466;2023-07-24T07:53:35;21.50;99.90
12460;DHT22;6295;49.452;8.466;2023-07-24T08:01:41;21.60;99.90
12460;DHT22;6295;49.452;8.466;2023-07-24T08:05:47;21.60;99.90
12460;DHT22;6295;49.452;8.466;2023-07-24T08:09:49;21.60;99.90
12460;DHT22;6295;49.452;8.466;2023-07-24T08:17:54;21.70;99.90
12460;DHT22;6295;49.452;8.466;2023-07-24T08:21:57;21.80;99.90
12460;DHT22;6295;49.452;8.466;2023-07-24T08:34:07;22.00;99.90
12460;DHT22;6295;49.452;8.466;2023-07-24T08:42:14;22.30;99.90
12460;DHT22;6295;49.452;8.466;2023-07-24T08:46:16;22.30;99.90
12460;DHT22;6295;49.452;8.466;2023-07-24T08:50:20;22.40;99.90
12460;DHT22;6295;49.452;8.466;2023-07-24T08:54:24;22.50;99.90
12460;DHT22;6295;49.452;8.466;2023-07-24T09:06:33;22.60;99.90
12460;DHT22;6295;49.452;8.466;2023-07-24T09:10:36;22.60;99.90
12460;DHT22;6295;49.452;8.466;2023-07-24T09:14:39;22.60;99.90
12460;DHT22;6295;49.452;8.466;2023-07-24T09:18:41;22.60;99.90
12460;DHT22;6295;49.452;8.466;2023-07-24T09:22:48;22.70;99.90
12460;DHT22;6295;49.452;8.466;2023-07-24T09:26:53;22.80;99.90
12460;DHT22;6295;49.452;8.466;2023-07-24T09:35:02;22.80;99.90
12460;DHT22;6295;49.452;8.466;2023-07-24T09:39:04;22.90;99.90
12460;DHT22;6295;49.452;8.466;2023-07-24T09:43:20;22.80;99.90
12460;DHT22;6295;49.452;8.466;2023-07-24T09:47:22;22.70;99.90
12460;DHT22;6295;49.452;8.466;2023-07-24T09:51:25;22.70;99.90
12460;DHT22;6295;49.452;8.466;2023-07-24T10:03:39;22.70;99.90
12460;DHT22;6295;49.452;8.466;2023-07-24T10:07:42;22.70;99.90
12460;DHT22;6295;49.452;8.466;2023-07-24T10:15:48;22.70;99.90
12460;DHT22;6295;49.452;8.466;2023-07-24T10:19:51;22.70;99.90
12460;DHT22;6295;49.452;8.466;2023-07-24T10:27:55;22.60;99.90
12460;DHT22;6295;49.452;8.466;2023-07-24T10:31:59;22.60;99.90
12460;DHT22;6295;49.452;8.466;2023-07-24T10:36:05;22.60;99.90
12460;DHT22;6295;49.452;8.466;2023-07-24T10:48:34;22.70;99.90
12460;DHT22;6295;49.452;8.466;2023-07-24T10:52:36;22.80;99.90
12460;DHT22;6295;49.452;8.466;2023-07-24T10:56:38;22.80;99.90
12460;DHT22;6295;49.452;8.466;2023-07-24T11:00:40;22.90;99.90
12460;DHT22;6295;49.452;8.466;2023-07-24T11:08:53;23.00;99.90
12460;DHT22;6295;49.452;8.466;2023-07-24T11:12:58;23.20;99.90
12460;DHT22;6295;49.452;8.466;2023-07-24T11:17:00;23.20;99.90
12460;DHT22;6295;49.452;8.466;2023-07-24T11:21:04;23.40;99.90
12460;DHT22;6295;49.452;8.466;2023-07-24T11:29:11;23.50;99.90
12460;DHT22;6295;49.452;8.466;2023-07-24T11:33:15;23.60;99.90
12460;DHT22;6295;49.452;8.466;2023-07-24T11:37:22;23.60;99.90
12460;DHT22;6295;49.452;8.466;2023-07-24T11:41:28;23.70;99.90
12460;DHT22;6295;49.452;8.466;2023-07-24T11:45:41;23.60;99.90
12460;DHT22;6295;49.452;8.466;2023-07-24T11:49:43;23.50;99.90
12460;DHT22;6295;49.452;8.466;2023-07-24T11:53:50;23.50;99.90
12460;DHT22;6295;49.452;8.466;2023-07-24T11:57:56;23.60;99.90
12460;DHT22;6295;49.452;8.466;2023-07-24T12:01:59;23.60;99.90
12460;DHT22;6295;49.452;8.466;2023-07-24T12:14:09;23.70;99.90
12460;DHT22;6295;49.452;8.466;2023-07-24T12:18:12;23.70;99.90
12460;DHT22;6295;49.452;8.466;2023-07-24T12:22:14;23.60;99.90
12460;DHT22;6295;49.452;8.466;2023-07-24T12:34:22;23.60;99.90
12460;DHT22;6295;49.452;8.466;2023-07-24T12:38:26;23.60;99.90
12460;DHT22;6295;49.452;8.466;2023-07-24T12:42:29;23.70;99.90
12460;DHT22;6295;49.452;8.466;2023-07-24T12:46:31;23.80;99.90
12460;DHT22;6295;49.452;8.466;2023-07-24T12:50:34;24.00;99.90
12460;DHT22;6295;49.452;8.466;2023-07-24T12:54:36;24.20;99.90
12460;DHT22;6295;49.452;8.466;2023-07-24T12:58:39;24.40;99.90
12460;DHT22;6295;49.452;8.466;2023-07-24T13:02:42;24.40;99.90
12460;DHT22;6295;49.452;8.466;2023-07-24T13:06:45;24.40;99.90
12460;DHT22;6295;49.452;8.466;2023-07-24T13:14:53;24.50;99.90
12460;DHT22;6295;49.452;8.466;2023-07-24T13:18:58;24.50;99.90
12460;DHT22;6295;49.452;8.466;2023-07-24T13:23:04;24.70;99.90
12460;DHT22;6295;49.452;8.466;2023-07-24T13:27:09;24.90;99.90
12460;DHT22;6295;49.452;8.466;2023-07-24T13:35:17;25.10;99.90
12460;DHT22;6295;49.452;8.466;2023-07-24T13:39:19;25.20;99.90
12460;DHT22;6295;49.452;8.466;2023-07-24T13:43:21;25.30;99.90
12460;DHT22;6295;49.452;8.466;2023-07-24T13:47:25;25.30;99.90
12460;DHT22;6295;49.452;8.466;2023-07-24T13:59:32;25.00;99.90
12460;DHT22;6295;49.452;8.466;2023-07-24T14:03:36;24.80;99.90
12460;DHT22;6295;49.452;8.466;2023-07-24T14:07:38;24.70;99.90
12460;DHT22;6295;49.452;8.466;2023-07-24T14:19:46;23.80;99.90
12460;DHT22;6295;49.452;8.466;2023-07-24T14:23:51;23.40;99.90
12460;DHT22;6295;49.452;8.466;2023-07-24T14:27:56;22.90;99.90
12460;DHT22;6295;49.452;8.466;2023-07-24T14:32:02;22.70;99.90
12460;DHT22;6295;49.452;8.466;2023-07-24T14:40:10;22.40;99.90
12460;DHT22;6295;49.452;8.466;2023-07-24T14:44:13;22.40;99.90
12460;DHT22;6295;49.452;8.466;2023-07-24T14:48:15;22.40;99.90
12460;DHT22;6295;49.452;8.466;2023-07-24T14:56:24;22.40;99.90
12460;DHT22;6295;49.452;8.466;2023-07-24T15:00:27;22.40;99.90
12460;DHT22;6295;49.452;8.466;2023-07-24T15:04:30;22.30;99.90
12460;DHT22;6295;49.452;8.466;2023-07-24T15:08:33;22.30;99.90
12460;DHT22;6295;49.452;8.466;2023-07-24T15:12:36;22.30;99.90
12460;DHT22;6295;49.452;8.466;2023-07-24T15:16:38;22.40;99.90
12460;DHT22;6295;49.452;8.466;2023-07-24T15:20:40;22.60;99.90
12460;DHT22;6295;49.452;8.466;2023-07-24T15:24:44;22.80;99.90
12460;DHT22;6295;49.452;8.466;2023-07-24T15:32:48;22.80;99.90
12460;DHT22;6295;49.452;8.466;2023-07-24T15:36:50;22.90;99.90
12460;DHT22;6295;49.452;8.466;2023-07-24T15:40:54;23.00;99.90
12460;DHT22;6295;49.452;8.466;2023-07-24T15:44:56;23.10;99.90
12460;DHT22;6295;49.452;8.466;2023-07-24T15:48:58;23.10;99.90
12460;DHT22;6295;49.452;8.466;2023-07-24T15:57:04;22.90;99.90
12460;DHT22;6295;49.452;8.466;2023-07-24T16:01:08;22.80;99.90
12460;DHT22;6295;49.452;8.466;2023-07-24T16:05:17;22.60;99.90
12460;DHT22;6295;49.452;8.466;2023-07-24T16:09:20;22.60;99.90
12460;DHT22;6295;49.452;8.466;2023-07-24T16:17:28;23.00;99.90
12460;DHT22;6295;49.452;8.466;2023-07-24T16:21:30;23.20;99.90
12460;DHT22;6295;49.452;8.466;2023-07-24T16:25:32;23.40;99.90
12460;DHT22;6295;49.452;8.466;2023-07-24T16:29:36;23.50;99.90
12460;DHT22;6295;49.452;8.466;2023-07-24T16:33:38;23.60;99.90
12460;DHT22;6295;49.452;8.466;2023-07-24T16:37:40;23.70;99.90
12460;DHT22;6295;49.452;8.466;2023-07-24T16:41:43;23.80;99.90
12460;DHT22;6295;49.452;8.466;2023-07-24T16:45:47;23.90;99.90
12460;DHT22;6295;49.452;8.466;2023-07-24T16:53:54;24.00;99.90
12460;DHT22;6295;49.452;8.466;2023-07-24T17:02:00;24.20;99.90
12460;DHT22;6295;49.452;8.466;2023-07-24T17:10:05;24.40;99.90
12460;DHT22;6295;49.452;8.466;2023-07-24T17:14:08;24.50;99.90
12460;DHT22;6295;49.452;8.466;2023-07-24T17:18:12;24.60;99.90
12460;DHT22;6295;49.452;8.466;2023-07-24T17:22:14;24.70;99.90
12460;DHT22;6295;49.452;8.466;2023-07-24T17:26:16;24.70;99.90
12460;DHT22;6295;49.452;8.466;2023-07-24T17:30:18;24.80;99.90
12460;DHT22;6295;49.452;8.466;2023-07-24T17:34:22;24.80;99.90
12460;DHT22;6295;49.452;8.466;2023-07-24T17:38:24;24.90;99.90
12460;DHT22;6295;49.452;8.466;2023-07-24T17:42:26;24.90;99.90
12460;DHT22;6295;49.452;8.466;2023-07-24T17:46:28;24.90;99.90
12460;DHT22;6295;49.452;8.466;2023-07-24T17:50:31;24.90;99.90
12460;DHT22;6295;49.452;8.466;2023-07-24T17:54:35;24.80;99.90
12460;DHT22;6295;49.452;8.466;2023-07-24T17:58:37;24.80;99.90
12460;DHT22;6295;49.452;8.466;2023-07-24T18:02:39;24.70;99.90
12460;DHT22;6295;49.452;8.466;2023-07-24T18:06:42;24.70;99.90
12460;DHT22;6295;49.452;8.466;2023-07-24T18:10:45;24.60;99.90
12460;DHT22;6295;49.452;8.466;2023-07-24T18:14:47;24.50;99.90
12460;DHT22;6295;49.452;8.466;2023-07-24T18:18:50;24.40;99.90
12460;DHT22;6295;49.452;8.466;2023-07-24T18:22:53;24.40;99.90
12460;DHT22;6295;49.452;8.466;2023-07-24T18:30:58;24.20;99.90
12460;DHT22;6295;49.452;8.466;2023-07-24T18:35:00;24.20;99.90
12460;DHT22;6295;49.452;8.466;2023-07-24T18:39:04;24.10;99.90
12460;DHT22;6295;49.452;8.466;2023-07-24T18:43:06;23.80;99.90
12460;DHT22;6295;49.452;8.466;2023-07-24T18:47:08;23.60;99.90
12460;DHT22;6295;49.452;8.466;2023-07-24T18:51:11;23.40;99.90
12460;DHT22;6295;49.452;8.466;2023-07-24T18:55:16;23.20;99.90
